Latest Weather Observations for Pirlangimpi

IDD60901

Issued at 7:31 am CST Wednesday 12 August 2020 (issued every 10 minutes, with the page automatically refreshed every 10 minutes)

About weather observations | Map of Darwin area stations | Latest observations for Darwin area | Other Formats
Station Details ID: 014142 Name: PIRLANGIMPI AIRPORT Lat: -11.40 Lon: 130.42 Height: 18.3 m
Data from the previous 72 hours. | See also: Recent months at Pirlangimpi
Date/Time
CST
Temp
°C
App
Temp
°C
Dew
Point
°C
Rel
Hum
%
Delta-T
°C
Wind Press
QNH
hPa
Press
MSL
hPa
Rain since
9am
mm
Dir  Spd
km/h
Gust
km/h
Spd
kts
Gust
kts
12/07:30am 21.0 25.0 20.5 97 0.3 CALM 0 0 0 0 1014.2 1014.1 0.0
12/07:00am 20.6 23.9 19.9 96 0.4 NE 2 4 1 2 1013.9 1013.8 0.0
12/06:30am 20.8 23.9 20.3 97 0.3 NE 4 4 2 2 1013.6 1013.5 0.0
12/06:00am 20.4 23.2 19.7 96 0.4 NE 4 4 2 2 1013.3 1013.2 0.0
12/05:30am 20.4 22.8 19.7 96 0.4 NE 6 6 3 3 1013.0 1012.9 0.0
12/05:00am 20.4 23.9 19.6 95 0.5 CALM 0 0 0 0 1012.7 1012.6 0.0
12/04:30am 20.9 24.7 20.2 96 0.4 CALM 0 0 0 0 1012.3 1012.2 0.0
12/04:00am 20.8 24.5 20.0 95 0.5 CALM 0 0 0 0 1012.2 1012.1 0.0
12/03:30am 20.9 24.7 20.1 95 0.5 CALM 0 0 0 0 1012.4 1012.3 0.0
12/03:00am 21.1 25.0 20.3 95 0.5 CALM 0 0 0 0 1012.7 1012.6 0.0
12/02:30am 20.9 24.6 19.9 94 0.6 CALM 0 0 0 0 1012.9 1012.8 0.0
12/02:00am 21.1 24.9 20.1 94 0.6 CALM 0 0 0 0 1013.1 1013.0 0.0
12/01:30am 21.1 24.9 20.1 94 0.6 CALM 0 0 0 0 1013.5 1013.4 0.0
12/01:00am 21.2 24.9 20.0 93 0.8 CALM 0 0 0 0 1013.7 1013.6 0.0
12/12:30am 21.3 25.1 20.1 93 0.8 CALM 0 0 0 0 1014.1 1014.0 0.0
12/12:00am 21.6 25.5 20.4 93 0.8 CALM 0 0 0 0 1014.4 1014.3 0.0
 
Date/Time
CST
Temp
°C
App
Temp
°C
Dew
Point
°C
Rel
Hum
%
Delta-T
°C
Wind Press
QNH
hPa
Press
MSL
hPa
Rain since
9am
mm
Dir  Spd
km/h
Gust
km/h
Spd
kts
Gust
kts
11/11:30pm 21.8 25.7 20.4 92 0.9 CALM 0 0 0 0 1014.6 1014.5 0.0
11/11:00pm 22.0 25.9 20.3 90 1.1 CALM 0 0 0 0 1014.7 1014.6 0.0
11/10:30pm 22.3 26.1 20.2 88 1.4 CALM 0 0 0 0 1014.7 1014.6 0.0
11/10:00pm 22.6 26.6 20.5 88 1.4 CALM 0 0 0 0 1014.8 1014.7 0.0
11/09:30pm 23.0 27.0 20.5 86 1.6 CALM 0 0 0 0 1014.8 1014.7 0.0
11/09:00pm 23.2 26.6 20.2 83 1.9 N 2 4 1 2 1014.7 1014.6 0.0
11/08:30pm 23.6 27.5 20.3 82 2.1 CALM 0 0 0 0 1014.5 1014.4 0.0
11/08:00pm 24.1 27.9 20.2 79 2.5 CALM 0 0 0 0 1014.2 1014.1 0.0
11/07:30pm 25.0 28.3 20.0 74 3.2 NNE 2 4 1 2 1014.1 1014.0 0.0
11/07:00pm 25.7 28.6 19.8 70 3.8 NNE 4 7 2 4 1013.9 1013.8 0.0
11/06:30pm 26.6 29.0 19.7 66 4.5 NNE 6 9 3 5 1013.6 1013.5 0.0
11/06:00pm 27.2 29.8 20.0 64 4.7 NNE 6 11 3 6 1013.3 1013.2 0.0
11/05:30pm 27.2 30.0 20.5 67 4.4 NNW 6 11 3 6 1013.1 1013.0 0.0
11/05:00pm 28.4 31.6 20.4 62 5.3 NW 4 9 2 5 1012.9 1012.8 0.0
11/04:30pm 29.3 31.6 19.9 57 6.2 NNE 7 13 4 7 1012.6 1012.5 0.0
11/04:00pm 29.5 31.9 20.1 57 6.2 NNE 7 17 4 9 1012.5 1012.4 0.0
11/03:30pm 30.1 31.5 19.5 53 6.9 NE 11 19 6 10 1012.3 1012.2 0.0
11/03:00pm 31.8 34.1 19.8 49 7.9 NE 7 15 4 8 1012.3 1012.2 0.0
11/02:30pm 31.3 33.2 19.0 48 8.0 WNW 7 13 4 7 1012.6 1012.5 0.0
11/02:00pm 31.7 33.3 17.9 43 8.9 NW 6 11 3 6 1013.1 1013.0 0.0
11/01:30pm 30.9 32.6 19.3 50 7.6 NW 9 17 5 9 1013.6 1013.5 0.0
11/01:00pm 30.6 32.6 19.9 52 7.0 WNW 9 17 5 9 1014.0 1013.9 0.0
11/12:30pm 30.1 31.4 18.5 49 7.5 W 9 17 5 9 1014.3 1014.2 0.0
11/12:00pm 29.7 31.7 18.8 52 7.0 W 6 11 3 6 1014.8 1014.7 0.0
11/11:30am 29.0 31.0 18.7 53 6.6 WSW 6 9 3 5 1015.5 1015.4 0.0
11/11:00am 28.4 30.2 19.6 59 5.7 SSW 9 13 5 7 1015.7 1015.6 0.0
11/10:30am 28.2 30.4 19.7 60 5.5 SSW 7 11 4 6 1015.9 1015.8 0.0
11/10:00am 29.0 30.6 17.8 50 7.1 NE 6 11 3 6 1016.0 1015.9 0.0
11/09:30am 27.7 30.6 19.8 62 5.1 E 4 9 2 5 1016.1 1016.0 0.0
11/09:00am 26.9 30.0 20.3 67 4.3 ENE 4 6 2 3 1015.9 1015.8 0.0
11/08:30am 25.2 28.9 20.0 73 3.4 CALM 0 0 0 0 1015.7 1015.6 0.0
11/08:00am 22.3 25.4 19.5 84 1.8 NE 2 4 1 2 1015.4 1015.3 0.0
11/07:30am 20.0 23.2 18.8 93 0.8 CALM 0 4 0 2 1015.0 1014.9 0.0
11/07:00am 19.6 21.8 18.4 93 0.7 NE 4 6 2 3 1014.6 1014.5 0.0
11/06:30am 19.9 22.3 18.9 94 0.6 ENE 4 6 2 3 1014.1 1014.0 0.0
11/06:00am 19.6 21.9 18.6 94 0.6 NE 4 6 2 3 1013.9 1013.8 0.0
11/05:30am 19.4 21.6 18.4 94 0.6 ENE 4 6 2 3 1013.6 1013.5 0.0
11/05:00am 19.2 21.3 18.2 94 0.6 ENE 4 4 2 2 1013.1 1013.0 0.0
11/04:30am 19.1 21.1 17.9 93 0.7 NE 4 6 2 3 1013.1 1013.0 0.0
11/04:00am 19.6 22.7 18.6 94 0.6 CALM 0 0 0 0 1013.0 1012.9 0.0
11/03:30am 19.6 22.6 18.4 93 0.7 CALM 0 0 0 0 1013.2 1013.1 0.0
11/03:00am 19.6 22.5 18.1 91 0.9 CALM 0 0 0 0 1013.4 1013.3 0.0
11/02:30am 19.9 22.6 18.6 92 0.8 NE 2 4 1 2 1013.5 1013.4 0.0
11/02:00am 19.9 22.5 18.4 91 0.9 NE 2 4 1 2 1013.5 1013.4 0.0
11/01:30am 20.1 23.0 18.2 89 1.2 CALM 0 0 0 0 1013.8 1013.7 0.0
11/01:00am 20.3 23.2 18.2 88 1.3 CALM 0 0 0 0 1014.0 1013.9 0.0
11/12:30am 20.6 23.6 18.4 87 1.4 CALM 0 0 0 0 1014.1 1014.0 0.0
11/12:00am 20.9 23.9 18.5 86 1.5 CALM 0 0 0 0 1014.2 1014.1 0.0
 
Date/Time
CST
Temp
°C
App
Temp
°C
Dew
Point
°C
Rel
Hum
%
Delta-T
°C
Wind Press
QNH
hPa
Press
MSL
hPa
Rain since
9am
mm
Dir  Spd
km/h
Gust
km/h
Spd
kts
Gust
kts
10/11:30pm 21.1 24.1 18.5 85 1.6 CALM 0 0 0 0 1014.4 1014.3 0.0
10/11:00pm 21.5 24.3 18.9 85 1.6 NNW 2 4 1 2 1014.5 1014.4 0.0
10/10:30pm 21.7 24.8 18.7 83 1.9 CALM 0 0 0 0 1014.7 1014.6 0.0
10/10:00pm 22.2 25.0 18.8 81 2.1 N 2 4 1 2 1014.7 1014.6 0.0
10/09:30pm 22.5 24.9 18.7 79 2.4 N 4 6 2 3 1014.6 1014.5 0.0
10/09:00pm 22.9 25.7 18.9 78 2.5 NNE 2 4 1 2 1014.4 1014.3 0.0
10/08:30pm 23.3 26.4 18.6 75 3.0 CALM 0 0 0 0 1014.1 1014.0 0.0
10/08:00pm 23.9 26.8 18.3 71 3.5 CALM 0 0 0 0 1013.9 1013.8 0.0
10/07:30pm 24.9 27.6 18.6 68 4.0 N 2 4 1 2 1013.7 1013.6 0.0
10/07:00pm 25.9 28.2 18.6 64 4.6 N 4 7 2 4 1013.2 1013.1 0.0
10/06:30pm 26.7 28.7 18.8 62 5.1 NNE 6 11 3 6 1012.7 1012.6 0.0
10/06:00pm 27.3 29.4 18.9 60 5.4 NNE 6 13 3 7 1012.4 1012.3 0.0
10/05:30pm 28.0 29.3 18.4 56 6.1 NNE 9 17 5 9 1011.9 1011.8 0.0
10/05:00pm 29.4 29.8 18.2 51 7.2 NE 13 20 7 11 1011.6 1011.5 0.0
10/04:30pm 30.4 30.7 17.8 46 8.1 NE 13 24 7 13 1011.2 1011.1 0.0
10/04:00pm 31.3 33.0 18.6 46 8.2 NNE 7 17 4 9 1011.2 1011.1 0.0
10/03:30pm 31.6 33.5 18.9 47 8.3 NNE 7 17 4 9 1011.1 1011.0 0.0
10/03:00pm 31.7 32.9 19.0 47 8.3 NE 11 20 6 11 1011.3 1011.2 0.0
10/02:30pm 32.4 32.9 17.5 41 9.5 NE 11 20 6 11 1011.6 1011.5 0.0
10/02:00pm 32.5 31.9 17.5 40 9.6 ENE 17 24 9 13 1012.0 1011.9 0.0
10/01:30pm 31.7 31.3 17.2 42 9.2 E 15 22 8 12 1012.5 1012.4 0.0
10/01:00pm 32.1 31.8 16.4 39 9.9 ENE 13 22 7 12 1012.9 1012.8 0.0
10/12:30pm 31.1 29.6 16.3 41 9.3 ENE 19 28 10 15 1013.4 1013.3 0.0
10/12:00pm 30.9 30.3 17.6 45 8.5 ENE 17 24 9 13 1013.8 1013.7 0.0
10/11:30am 29.6 29.5 19.6 55 6.5 ENE 19 33 10 18 1014.4 1014.3 0.0
10/11:00am 29.4 30.3 20.8 60 5.7 ENE 17 28 9 15 1014.8 1014.7 0.0
10/10:30am 28.4 29.0 20.2 61 5.4 ENE 17 26 9 14 1015.1 1015.0 0.0
10/10:00am 28.2 29.3 20.5 63 5.1 E 15 20 8 11 1015.1 1015.0 0.0
10/09:30am 27.2 28.8 20.0 64 4.7 E 11 19 6 10 1015.2 1015.1 0.0
10/09:00am 26.4 29.1 20.7 71 3.7 E 7 13 4 7 1015.0 1014.9 0.0
10/08:30am 25.2 28.0 20.5 75 3.1 E 6 9 3 5 1014.9 1014.8 0.0
10/08:00am 23.0 25.7 19.4 80 2.3 ESE 4 7 2 4 1014.6 1014.5 0.0
10/07:30am 21.7 24.2 19.1 85 1.6 ESE 4 6 2 3 1014.3 1014.2 0.0
10/07:00am 21.2 23.4 19.1 88 1.3 E 6 7 3 4 1014.2 1014.1 0.0
10/06:30am 21.4 24.7 20.0 92 0.9 ESE 2 4 1 2 1013.7 1013.6 0.0
10/06:00am 21.6 24.8 20.4 93 0.8 SSE 4 6 2 3 1013.6 1013.5 0.0
10/05:30am 21.5 24.5 20.8 96 0.5 SE 6 7 3 4 1013.5 1013.4 0.0
10/05:00am 21.0 24.1 20.3 96 0.5 SSE 4 6 2 3 1013.5 1013.4 0.0
10/04:30am 20.3 23.4 19.5 95 0.5 ESE 2 4 1 2 1013.3 1013.2 0.0
10/04:00am 20.4 23.9 19.6 95 0.5 CALM 0 0 0 0 1013.1 1013.0 0.0
10/03:30am 20.4 23.8 19.4 94 0.6 CALM 0 0 0 0 1013.2 1013.1 0.0
10/03:00am 20.5 24.0 19.5 94 0.6 CALM 0 0 0 0 1013.0 1012.9 0.0
10/02:30am 20.6 24.1 19.6 94 0.6 CALM 0 0 0 0 1013.1 1013.0 0.0
10/02:00am 20.9 24.5 19.7 93 0.8 CALM 0 0 0 0 1013.2 1013.1 0.0
10/01:30am 21.0 24.3 20.0 94 0.6 NE 2 2 1 1 1013.0 1012.9 0.0
10/01:00am 21.3 24.8 20.3 94 0.6 NE 2 4 1 2 1013.2 1013.1 0.0
10/12:30am 21.3 24.8 20.3 94 0.6 NE 2 4 1 2 1013.5 1013.4 0.0
10/12:00am 21.5 25.4 20.3 93 0.8 CALM 0 4 0 2 1013.6 1013.5 0.0
 
Date/Time
CST
Temp
°C
App
Temp
°C
Dew
Point
°C
Rel
Hum
%
Delta-T
°C
Wind Press
QNH
hPa
Press
MSL
hPa
Rain since
9am
mm
Dir  Spd
km/h
Gust
km/h
Spd
kts
Gust
kts
09/11:30pm 21.7 25.1 20.2 91 1.0 NE 2 4 1 2 1013.7 1013.6 0.0
09/11:00pm 22.1 25.6 20.4 90 1.1 NE 2 4 1 2 1013.9 1013.8 0.0
09/10:30pm 22.5 26.0 20.4 88 1.4 NNE 2 4 1 2 1013.9 1013.8 0.0
09/10:00pm 22.8 26.7 20.3 86 1.6 CALM 0 0 0 0 1013.8 1013.7 0.0
09/09:30pm 23.4 27.3 20.3 83 2.0 CALM 0 0 0 0 1013.8 1013.7 0.0
09/09:00pm 24.5 28.0 20.4 78 2.7 N 2 6 1 3 1013.7 1013.6 0.0
09/08:30pm 25.6 29.6 20.6 74 3.3 CALM 0 4 0 2 1013.5 1013.4 0.0
09/08:00pm 26.2 29.0 20.8 72 3.6 NE 7 11 4 6 1013.3 1013.2 0.0
09/07:30pm 26.6 28.3 20.2 68 4.2 NE 11 15 6 8 1012.8 1012.7 0.0
09/07:00pm 27.0 29.2 20.3 66 4.4 ENE 9 13 5 7 1012.5 1012.4 0.0
09/06:30pm 27.6 30.7 21.4 69 4.1 NE 7 11 4 6 1012.2 1012.1 0.0
09/06:00pm 28.4 31.3 20.7 63 5.1 NNE 6 11 3 6 1011.6 1011.5 0.0
09/05:30pm 29.5 32.4 20.6 58 5.9 NNE 6 13 3 7 1011.3 1011.2 0.0
09/05:00pm 30.1 31.8 20.1 55 6.6 NE 11 20 6 11 1011.0 1010.9 0.0
09/04:30pm 30.4 32.4 20.0 53 6.9 NNE 9 17 5 9 1010.9 1010.8 0.0
09/04:00pm 30.5 32.6 20.1 53 6.9 NNE 9 17 5 9 1010.8 1010.7 0.0
09/03:30pm 31.3 33.7 20.9 54 7.0 NE 9 17 5 9 1010.8 1010.7 0.0
09/03:00pm 31.8 33.4 20.7 51 7.4 NE 13 24 7 13 1011.0 1010.9 0.0
09/02:30pm 31.9 33.1 19.9 49 7.9 ENE 13 24 7 13 1011.5 1011.4 0.0
09/02:00pm 31.1 32.1 19.4 49 7.7 E 13 20 7 11 1012.1 1012.0 0.0
09/01:30pm 31.4 32.2 19.1 48 8.0 ENE 13 26 7 14 1012.7 1012.6 0.0
09/01:00pm 30.9 31.4 19.3 50 7.6 NE 15 24 8 13 1013.0 1012.9 0.0
09/12:30pm 30.8 32.1 20.1 53 7.1 NE 13 22 7 12 1013.6 1013.5 0.0
09/12:00pm 29.9 30.9 20.2 56 6.4 ENE 15 22 8 12 1014.2 1014.1 0.0
09/11:30am 29.6 31.1 20.5 58 6.0 ENE 13 20 7 11 1014.5 1014.4 0.0
09/11:00am 28.9 31.1 21.1 62 5.2 E 11 20 6 11 1014.8 1014.7 0.0
09/10:30am 28.2 31.3 21.5 67 4.5 ESE 7 15 4 8 1014.8 1014.7 0.0
09/10:00am 27.8 31.0 21.6 69 4.1 SE 7 13 4 7 1014.9 1014.8 0.0
09/09:30am 26.6 29.5 21.1 72 3.6 SE 7 11 4 6 1015.1 1015.0 0.0
09/09:00am 25.1 28.0 20.6 76 2.9 SE 6 9 3 5 1014.9 1014.8 0.0
09/08:30am 24.2 26.7 19.9 77 2.8 E 6 7 3 4 1014.7 1014.6 0.0
09/08:00am 22.8 25.9 19.4 81 2.2 ESE 2 4 1 2 1014.4 1014.3 0.0

Latest Capital City Observations: Canberra | Sydney | Melbourne | Brisbane | Adelaide | Perth | Hobart | Darwin

Other formats

Comma delimited format used in spreadsheet applications
http://www.bom.gov.au/fwo/IDD60901/IDD60901.94119.axf

JavaScript Object Notation format (JSON) in row-major order
http://www.bom.gov.au/fwo/IDD60901/IDD60901.94119.json

Data quality

Most of these data are generated automatically and are frequently updated. Quality checks on data are not normally performed. It is possible for incorrect values to appear. Refer to information at About Latest Weather Observations and please check the disclaimer before using these data.